createdAt,value
2018-11-03T00:03:21.942Z,9.57
2018-11-03T00:08:26.339Z,10.83
2018-11-03T00:13:35.742Z,6.67
2018-11-03T00:18:39.802Z,7.70
2018-11-03T00:23:44.035Z,7.77
2018-11-03T00:28:47.926Z,7.10
2018-11-03T00:33:51.785Z,7.07
2018-11-03T00:38:55.662Z,8.00
2018-11-03T00:43:59.508Z,9.47
2018-11-03T00:49:03.613Z,8.00
2018-11-03T00:54:07.447Z,8.50
2018-11-03T00:59:11.295Z,8.57
2018-11-03T01:04:15.144Z,11.70
2018-11-03T01:09:19.010Z,10.83
2018-11-03T01:14:22.973Z,8.87
2018-11-03T01:19:26.837Z,10.93
2018-11-03T01:24:37.051Z,7.20
2018-11-03T01:29:40.922Z,10.27
2018-11-03T01:34:44.790Z,8.20
2018-11-03T01:39:48.644Z,11.03
2018-11-03T01:44:52.495Z,7.50
2018-11-03T01:49:56.338Z,8.40
2018-11-03T01:55:00.173Z,9.60
2018-11-03T02:00:04.271Z,7.07
2018-11-03T02:05:08.707Z,8.23
2018-11-03T02:10:12.834Z,8.80
2018-11-03T02:15:16.686Z,7.00
2018-11-03T02:20:20.532Z,7.83
2018-11-03T02:25:24.379Z,7.67
2018-11-03T02:30:28.929Z,9.73
2018-11-03T02:35:33.115Z,9.37
2018-11-03T02:40:36.962Z,7.67
2018-11-03T02:45:40.798Z,8.47
2018-11-03T02:50:44.650Z,11.70
2018-11-03T02:55:48.499Z,9.93
2018-11-03T03:00:52.363Z,10.10
2018-11-03T03:05:56.217Z,9.83
2018-11-03T03:11:00.052Z,10.73
2018-11-03T03:16:03.899Z,10.40
2018-11-03T03:21:07.779Z,10.97
2018-11-03T03:26:11.628Z,12.90
2018-11-03T03:31:15.461Z,11.57
2018-11-03T03:36:19.339Z,11.23
2018-11-03T03:41:23.183Z,11.83
2018-11-03T03:46:27.015Z,12.00
2018-11-03T03:51:30.951Z,15.23
2018-11-03T03:56:34.795Z,13.67
2018-11-03T04:01:38.642Z,11.40
2018-11-03T04:06:42.479Z,14.93
2018-11-03T04:11:46.340Z,18.00
2018-11-03T04:16:50.265Z,16.27
2018-11-03T04:21:54.116Z,15.87
2018-11-03T04:26:57.963Z,15.17
2018-11-03T04:32:01.803Z,13.90
2018-11-03T04:37:05.661Z,17.30
2018-11-03T04:42:16.327Z,20.77
2018-11-03T04:47:20.170Z,15.40
2018-11-03T04:52:24.026Z,16.30
2018-11-03T04:57:27.955Z,18.07
2018-11-03T05:02:31.795Z,20.77
2018-11-03T05:07:35.654Z,18.10
2018-11-03T05:12:39.526Z,16.73
2018-11-03T05:17:43.125Z,17.20
2018-11-03T05:22:46.867Z,16.83
2018-11-03T05:27:50.749Z,14.10
2018-11-03T05:32:54.578Z,16.40
2018-11-03T05:37:58.423Z,14.47
2018-11-03T05:43:02.390Z,14.93
2018-11-03T05:48:06.191Z,15.47
2018-11-03T05:53:10.040Z,14.20
2018-11-03T05:58:13.883Z,15.70
2018-11-03T06:03:17.751Z,16.70
2018-11-03T06:08:21.619Z,17.20
2018-11-03T06:13:25.467Z,17.13
2018-11-03T06:18:29.313Z,15.83
2018-11-03T06:23:33.219Z,17.10
2018-11-03T06:28:37.002Z,17.33
2018-11-03T06:33:40.871Z,17.33
2018-11-03T06:38:44.837Z,17.47
2018-11-03T06:43:48.639Z,19.50
2018-11-03T06:48:53.750Z,18.10
2018-11-03T06:53:57.631Z,20.07
2018-11-03T06:59:01.491Z,17.50
2018-11-03T07:04:06.447Z,17.33
2018-11-03T07:09:12.110Z,21.70
2018-11-03T07:14:15.999Z,19.07
2018-11-03T07:19:20.939Z,16.60
2018-11-03T07:24:24.798Z,18.83
2018-11-03T07:29:28.708Z,18.77
2018-11-03T07:34:32.523Z,16.57
2018-11-03T07:39:36.390Z,16.40
2018-11-03T07:44:40.256Z,17.00
2018-11-03T07:49:44.113Z,17.40
2018-11-03T07:54:48.173Z,16.77
2018-11-03T07:59:51.955Z,16.57
2018-11-03T08:04:55.959Z,17.00
2018-11-03T08:10:00.888Z,15.57
2018-11-03T08:15:07.252Z,13.27
2018-11-03T08:20:12.004Z,18.47
2018-11-03T08:25:16.335Z,17.23
2018-11-03T08:30:20.333Z,16.67
2018-11-03T08:35:24.528Z,14.93
2018-11-03T08:40:28.444Z,13.93
2018-11-03T08:45:32.330Z,16.03
2018-11-03T08:50:36.495Z,14.47
2018-11-03T08:55:40.752Z,16.97
2018-11-03T09:00:44.738Z,16.27
2018-11-03T09:05:48.638Z,16.33
2018-11-03T09:10:52.548Z,14.83
2018-11-03T09:15:57.318Z,13.20
2018-11-03T09:21:01.331Z,13.40
2018-11-03T09:26:07.355Z,14.13
2018-11-03T09:31:11.910Z,13.23
2018-11-03T09:36:16.366Z,15.33
2018-11-03T09:41:20.736Z,12.87
2018-11-03T09:46:25.019Z,11.83
2018-11-03T09:51:29.407Z,13.07
2018-11-03T09:56:33.266Z,12.10
2018-11-03T10:01:37.990Z,14.53
2018-11-03T10:06:42.844Z,12.33
2018-11-03T10:11:47.483Z,11.70
2018-11-03T10:16:53.110Z,12.07
2018-11-03T10:21:59.959Z,11.73
2018-11-03T10:27:04.639Z,13.57
2018-11-03T10:32:09.175Z,11.43
2018-11-03T10:37:13.933Z,12.37
2018-11-03T10:42:18.588Z,11.90
2018-11-03T10:47:24.720Z,12.03
2018-11-03T10:52:29.629Z,12.50
2018-11-03T10:57:34.205Z,11.87
2018-11-03T11:02:44.176Z,12.43
2018-11-03T11:07:53.655Z,11.33
2018-11-03T11:13:01.148Z,9.50
2018-11-03T11:18:05.519Z,12.03
2018-11-03T11:23:09.886Z,12.73
2018-11-03T11:28:14.821Z,11.70
2018-11-03T11:33:19.673Z,11.60
2018-11-03T11:38:24.581Z,11.90
2018-11-03T11:43:30.000Z,13.20
2018-11-03T11:48:34.437Z,14.27
2018-11-03T11:53:41.419Z,12.50
2018-11-03T11:58:47.828Z,12.53
2018-11-03T12:03:51.948Z,12.37
2018-11-03T12:08:55.906Z,14.07
2018-11-03T12:13:59.826Z,13.13
2018-11-03T12:19:03.709Z,13.83
2018-11-03T12:24:07.576Z,13.33
2018-11-03T12:29:12.426Z,12.37
2018-11-03T12:34:16.271Z,11.57
2018-11-03T12:39:20.158Z,15.20
2018-11-03T12:44:24.194Z,12.63
2018-11-03T12:49:27.991Z,14.53
2018-11-03T12:54:38.331Z,14.20
2018-11-03T12:59:42.193Z,13.10
2018-11-03T13:04:46.058Z,13.73
2018-11-03T13:09:50.557Z,11.73
2018-11-03T13:14:54.343Z,12.17
2018-11-03T13:19:58.243Z,14.17
2018-11-03T13:25:02.093Z,15.10
2018-11-03T13:30:07.146Z,12.27
2018-11-03T13:35:12.123Z,17.20
2018-11-03T13:40:15.975Z,14.90
2018-11-03T13:45:19.818Z,12.77
2018-11-03T13:50:23.678Z,12.33
2018-11-03T13:55:27.574Z,13.10
2018-11-03T14:00:31.408Z,12.47
2018-11-03T14:05:35.303Z,12.50
2018-11-03T14:10:39.298Z,14.20
2018-11-03T14:15:43.158Z,13.47
2018-11-03T14:20:47.025Z,13.83
2018-11-03T14:25:51.723Z,16.17
2018-11-03T14:30:55.834Z,15.57
2018-11-03T14:35:59.942Z,13.67
2018-11-03T14:41:08.692Z,13.70
2018-11-03T14:46:12.599Z,17.60
2018-11-03T14:51:17.219Z,18.20
2018-11-03T14:56:21.140Z,18.10
2018-11-03T15:01:25.159Z,22.40
2018-11-03T15:06:29.237Z,17.63
2018-11-03T15:11:33.134Z,26.77
2018-11-03T15:16:37.309Z,20.27
2018-11-03T15:21:41.191Z,21.57
2018-11-03T15:26:45.112Z,24.53
2018-11-03T15:31:49.006Z,24.20
2018-11-03T15:36:52.990Z,24.67
2018-11-03T15:41:56.847Z,25.43
2018-11-03T15:47:00.734Z,27.50
2018-11-03T15:52:04.830Z,29.57
2018-11-03T15:57:08.727Z,25.93
2018-11-03T16:02:12.623Z,25.87
2018-11-03T16:07:16.476Z,25.47
2018-11-03T16:12:20.525Z,25.17
2018-11-03T16:17:24.296Z,27.37
2018-11-03T16:22:28.276Z,27.30
2018-11-03T16:27:32.142Z,26.30
2018-11-03T16:32:36.271Z,39.57
2018-11-03T16:37:40.388Z,36.07
2018-11-03T16:42:45.191Z,32.93
2018-11-03T16:47:49.163Z,30.20
2018-11-03T16:52:53.547Z,29.97
2018-11-03T16:57:57.536Z,29.00
2018-11-03T17:03:01.494Z,29.80
2018-11-03T17:08:05.424Z,42.57
2018-11-03T17:13:09.371Z,36.47
2018-11-03T17:18:13.244Z,36.20
2018-11-03T17:23:17.186Z,32.60
2018-11-03T17:28:21.007Z,33.17
2018-11-03T17:33:24.916Z,33.30
2018-11-03T17:38:28.784Z,34.73
2018-11-03T17:43:32.707Z,39.47
2018-11-03T17:48:37.465Z,37.30
2018-11-03T17:53:41.637Z,34.17
2018-11-03T17:58:46.575Z,34.13
2018-11-03T18:03:52.252Z,31.10
2018-11-03T18:08:56.139Z,34.23
2018-11-03T18:14:00.021Z,35.07
2018-11-03T18:19:04.028Z,32.00
2018-11-03T18:24:08.007Z,32.63
2018-11-03T18:29:11.907Z,38.23
2018-11-03T18:34:15.818Z,33.33
2018-11-03T18:39:19.686Z,36.53
2018-11-03T18:44:24.527Z,36.30
2018-11-03T18:49:28.398Z,36.93
2018-11-03T18:54:32.259Z,33.83
2018-11-03T18:59:36.227Z,35.80
2018-11-03T19:04:40.087Z,34.77
2018-11-03T19:09:44.020Z,37.90
2018-11-03T19:14:47.952Z,33.93
2018-11-03T19:19:51.831Z,37.70
2018-11-03T19:24:56.692Z,38.80
2018-11-03T19:30:00.700Z,34.73
2018-11-03T19:35:04.639Z,39.43
2018-11-03T19:40:10.162Z,33.83
2018-11-03T19:45:14.063Z,38.33
2018-11-03T19:50:17.987Z,38.13
2018-11-03T19:55:21.911Z,40.57
2018-11-03T20:00:25.933Z,46.03
2018-11-03T20:05:31.324Z,42.50
2018-11-03T20:10:35.228Z,42.67
2018-11-03T20:15:39.109Z,42.23
2018-11-03T20:20:45.511Z,42.33
2018-11-03T20:25:49.388Z,41.77
2018-11-03T20:30:53.262Z,41.13
2018-11-03T20:35:57.175Z,41.63
2018-11-03T20:41:01.159Z,39.23
2018-11-03T20:46:05.482Z,40.40
2018-11-03T20:51:11.316Z,39.37
2018-11-03T20:56:15.255Z,40.67
2018-11-03T21:01:19.182Z,40.17
2018-11-03T21:06:23.244Z,40.37
2018-11-03T21:11:27.145Z,40.17
2018-11-03T21:16:31.144Z,42.90
2018-11-03T21:21:34.984Z,41.27
2018-11-03T21:26:38.963Z,40.53
2018-11-03T21:31:42.860Z,39.63
2018-11-03T21:36:46.765Z,39.37
2018-11-03T21:41:50.650Z,42.07
2018-11-03T21:46:54.753Z,41.73
2018-11-03T21:51:58.520Z,44.17
2018-11-03T21:57:02.479Z,41.83
2018-11-03T22:02:06.182Z,39.10
2018-11-03T22:07:09.947Z,40.67
2018-11-03T22:12:14.006Z,42.27
2018-11-03T22:17:17.967Z,39.77
2018-11-03T22:22:21.836Z,39.27
2018-11-03T22:27:25.723Z,48.57
2018-11-03T22:32:29.707Z,38.90
2018-11-03T22:37:33.563Z,47.43
2018-11-03T22:42:37.511Z,39.63
2018-11-03T22:47:41.569Z,40.87
2018-11-03T22:52:45.565Z,40.60
2018-11-03T22:57:49.735Z,42.83
2018-11-03T23:02:53.735Z,36.87
2018-11-03T23:07:57.667Z,36.27
2018-11-03T23:13:01.948Z,36.07
2018-11-03T23:18:05.849Z,38.60
2018-11-03T23:23:09.742Z,42.40
2018-11-03T23:28:13.971Z,37.83
2018-11-03T23:33:17.825Z,38.60
2018-11-03T23:38:21.675Z,36.97
2018-11-03T23:43:25.730Z,34.17
2018-11-03T23:48:29.729Z,34.83
2018-11-03T23:53:33.598Z,33.17
2018-11-03T23:58:38.465Z,35.37
